Time;durP1;ratioP1;P1;durP2;ratioP2;P2;SDS_P1;SDS_P2;PMS_P1;PMS_P2;Temp;Humidity;BMP_temperature;BMP_pressure;BME280_temperature;BME280_humidity;BME280_pressure;Samples;Min_cycle;Max_cycle;Signal;HPM_P1;HPM_P2
2023/07/14 00:00:37;;;;;;;3.40;2.50;;;;;;;18.76;65.07;98399.16;5072285;28;20227;-88
2023/07/14 00:03:05;;;;;;;2.40;2.20;;;;;;;18.78;64.45;98399.81;5073457;28;20254;-88
2023/07/14 00:05:34;;;;;;;2.90;2.17;;;;;;;18.85;64.25;98398.25;5073301;28;20235;-88
2023/07/14 00:08:03;;;;;;;3.60;2.27;;;;;;;18.85;64.32;98392.03;5072977;28;20227;-89
2023/07/14 00:10:31;;;;;;;6.77;2.10;;;;;;;18.87;64.09;98396.25;5072189;28;20199;-88
2023/07/14 00:13:00;;;;;;;4.50;2.30;;;;;;;18.86;63.79;98388.38;5072904;28;20208;-89
2023/07/14 00:15:27;;;;;;;4.73;2.37;;;;;;;18.84;63.89;98393.88;5072609;28;20235;-88
2023/07/14 00:17:58;;;;;;;4.53;2.20;;;;;;;18.78;64.02;98386.44;5072821;28;20212;-88
2023/07/14 00:20:29;;;;;;;3.30;2.27;;;;;;;18.77;65.02;98400.81;5071842;28;20228;-89
2023/07/14 00:22:56;;;;;;;3.77;2.27;;;;;;;18.70;66.01;98402.41;5072437;28;20217;-89
2023/07/14 00:25:25;;;;;;;6.10;2.47;;;;;;;18.68;65.71;98393.72;5072322;28;20227;-89
2023/07/14 00:27:53;;;;;;;3.53;2.70;;;;;;;18.66;65.39;98398.34;5072599;28;20203;-88
2023/07/14 00:30:21;;;;;;;2.57;2.10;;;;;;;18.63;64.91;98393.31;5071921;28;20208;-89
2023/07/14 00:32:49;;;;;;;3.63;2.50;;;;;;;18.58;65.13;98394.72;5072114;28;20215;-88
2023/07/14 00:35:21;;;;;;;2.43;2.17;;;;;;;18.52;65.30;98385.47;5072144;28;20239;-88
2023/07/14 00:37:48;;;;;;;3.93;2.20;;;;;;;18.42;66.20;98382.00;5072575;28;20208;-88
2023/07/14 00:40:16;;;;;;;4.13;2.67;;;;;;;18.34;66.37;98392.59;5071723;28;20227;-88
2023/07/14 00:42:43;;;;;;;3.00;2.60;;;;;;;18.29;66.42;98389.50;5072489;28;20211;-89
2023/07/14 00:45:12;;;;;;;5.73;2.33;;;;;;;18.17;67.01;98385.31;5072024;28;20722;-88
2023/07/14 00:47:38;;;;;;;3.90;2.50;;;;;;;18.07;68.14;98389.88;5072201;28;20207;-88
2023/07/14 00:50:06;;;;;;;2.63;2.17;;;;;;;18.02;69.40;98397.50;5071281;28;20666;-88
2023/07/14 00:52:38;;;;;;;5.27;2.80;;;;;;;17.88;71.15;98395.28;5072170;28;20214;-88
2023/07/14 00:55:28;;;;;;;2.40;2.20;;;;;;;17.73;72.65;98396.72;5071987;28;20232;-88
2023/07/14 00:57:56;;;;;;;4.33;2.50;;;;;;;17.57;74.39;98396.47;5071872;28;20212;-88
2023/07/14 01:00:27;;;;;;;3.87;2.93;;;;;;;17.55;74.83;98392.25;5070332;28;20235;-88
2023/07/14 01:02:53;;;;;;;2.43;2.23;;;;;;;17.45;76.99;98392.28;5071892;28;20257;-88
2023/07/14 01:05:20;;;;;;;7.53;3.20;;;;;;;17.34;79.12;98395.06;5071818;28;20238;-90
2023/07/14 01:07:48;;;;;;;3.43;2.47;;;;;;;17.25;80.41;98395.88;5071670;28;20211;-87
2023/07/14 01:10:18;;;;;;;3.47;2.70;;;;;;;17.21;80.16;98381.16;5070976;28;20207;-87
2023/07/14 01:12:51;;;;;;;6.40;4.17;;;;;;;17.15;80.06;98379.03;5071596;28;20207;-87
2023/07/14 01:15:18;;;;;;;3.93;2.77;;;;;;;17.15;79.69;98387.06;5071805;28;20235;-87
2023/07/14 01:17:46;;;;;;;4.60;2.80;;;;;;;17.12;79.26;98384.66;5071600;28;20207;-88
2023/07/14 01:20:13;;;;;;;4.07;2.70;;;;;;;17.09;79.84;98374.25;5070802;28;20235;-87
2023/07/14 01:22:53;;;;;;;5.83;3.10;;;;;;;17.11;80.70;98382.97;5071506;28;20226;-90
2023/07/14 01:25:27;;;;;;;3.23;2.83;;;;;;;17.13;80.75;98388.19;5071513;28;20239;-89
2023/07/14 01:27:55;;;;;;;3.73;2.90;;;;;;;17.09;80.66;98376.94;5071451;28;20666;-88
2023/07/14 01:30:22;;;;;;;4.13;2.80;;;;;;;17.09;80.24;98378.75;5070361;28;20215;-88
2023/07/14 01:32:51;;;;;;;4.63;2.70;;;;;;;17.03;80.43;98376.63;5071419;28;20199;-88
2023/07/14 01:35:21;;;;;;;4.10;3.27;;;;;;;16.93;81.11;98373.97;5070801;28;20227;-88
2023/07/14 01:37:48;;;;;;;5.37;3.03;;;;;;;16.89;81.06;98372.53;5071169;28;20207;-88
2023/07/14 01:40:17;;;;;;;4.60;2.90;;;;;;;16.85;81.16;98363.16;5070553;28;20227;-87
2023/07/14 01:42:49;;;;;;;3.63;3.00;;;;;;;16.76;81.89;98377.31;5071510;28;20211;-88
2023/07/14 01:45:20;;;;;;;3.23;2.73;;;;;;;16.69;82.30;98378.00;5071333;28;20238;-88
2023/07/14 01:47:51;;;;;;;6.67;3.17;;;;;;;16.64;83.18;98378.41;5071165;28;20226;-88
2023/07/14 01:50:23;;;;;;;6.27;3.00;;;;;;;16.56;83.85;98378.25;5070474;28;20199;-88
2023/07/14 01:52:54;;;;;;;3.70;2.77;;;;;;;16.51;83.50;98369.00;5071400;28;20692;-88
2023/07/14 01:55:22;;;;;;;3.63;2.70;;;;;;;16.42;83.84;98364.47;5071372;28;20227;-88
2023/07/14 01:57:54;;;;;;;5.03;2.87;;;;;;;16.32;84.40;98367.06;5071550;28;20563;-88
2023/07/14 02:00:22;;;;;;;4.00;3.13;;;;;;;16.24;85.00;98369.59;5071054;28;20222;-88
2023/07/14 02:02:52;;;;;;;5.67;2.90;;;;;;;16.16;85.22;98373.91;5071005;28;20203;-88
2023/07/14 02:05:25;;;;;;;3.00;2.70;;;;;;;16.09;85.91;98373.56;5070951;28;20242;-88
2023/07/14 02:07:51;;;;;;;4.37;3.23;;;;;;;16.04;86.94;98372.31;5071204;28;20214;-88
2023/07/14 02:10:20;;;;;;;5.03;3.20;;;;;;;15.95;88.66;98375.75;5070306;28;20209;-88
2023/07/14 02:12:49;;;;;;;5.13;3.30;;;;;;;15.92;88.82;98378.69;5070955;28;20246;-88
2023/07/14 02:15:19;;;;;;;3.33;3.03;;;;;;;15.86;89.23;98368.56;5070905;28;20813;-88
2023/07/14 02:17:49;;;;;;;3.60;3.13;;;;;;;15.82;89.86;98372.47;5071162;28;20212;-87
2023/07/14 02:20:20;;;;;;;4.20;3.03;;;;;;;15.80;90.12;98360.25;5070797;28;20234;-88
2023/07/14 02:22:49;;;;;;;4.33;3.33;;;;;;;15.78;90.95;98364.88;5071280;28;20188;-88
2023/07/14 02:25:19;;;;;;;4.53;2.90;;;;;;;15.78;91.16;98359.53;5073069;28;20243;-84
2023/07/14 02:27:46;;;;;;;5.07;3.10;;;;;;;15.72;90.80;98360.06;5074424;28;20207;-87
2023/07/14 02:30:15;;;;;;;4.57;3.40;;;;;;;15.68;91.25;98358.63;5071380;28;20632;-86
2023/07/14 02:32:45;;;;;;;3.60;2.97;;;;;;;15.67;91.58;98354.28;5074528;28;20211;-87
2023/07/14 02:35:19;;;;;;;3.97;2.43;;;;;;;15.62;91.49;98361.84;5071117;28;20227;-87
2023/07/14 02:38:03;;;;;;;3.17;2.87;;;;;;;15.58;92.00;98360.44;5070873;28;20212;-87
2023/07/14 02:40:33;;;;;;;4.37;3.17;;;;;;;15.55;92.92;98360.66;5069965;28;20255;-86
2023/07/14 02:42:59;;;;;;;3.87;3.13;;;;;;;15.54;92.54;98351.00;5070868;28;20571;-87
2023/07/14 02:45:28;;;;;;;3.87;3.17;;;;;;;15.49;92.58;98351.41;5070775;28;20233;-86
2023/07/14 02:47:59;;;;;;;7.53;3.77;;;;;;;15.45;92.93;98354.47;5073478;28;20207;-86
2023/07/14 02:50:26;;;;;;;4.47;3.17;;;;;;;15.41;93.88;98350.34;5073424;28;20210;-87
2023/07/14 02:52:53;;;;;;;3.90;3.23;;;;;;;15.38;93.40;98351.47;5074195;28;20565;-86
2023/07/14 02:55:19;;;;;;;3.77;2.97;;;;;;;15.34;93.63;98354.53;5074088;28;20721;-86
2023/07/14 02:57:46;;;;;;;5.30;3.43;;;;;;;15.31;94.24;98354.72;5074401;28;20207;-86
2023/07/14 03:00:15;;;;;;;4.37;3.10;;;;;;;15.29;94.80;98351.38;5073364;28;20230;-86
2023/07/14 03:02:42;;;;;;;4.70;3.30;;;;;;;15.29;95.44;98351.38;5074489;28;20217;-86
2023/07/14 03:05:11;;;;;;;3.97;3.30;;;;;;;15.28;94.69;98344.34;5073899;28;20238;-86
2023/07/14 03:07:39;;;;;;;4.43;3.00;;;;;;;15.24;94.72;98348.25;5074463;28;20208;-86
2023/07/14 03:10:08;;;;;;;5.00;3.10;;;;;;;15.16;94.34;98346.22;5073193;28;20210;-86
2023/07/14 03:12:35;;;;;;;6.73;3.27;;;;;;;15.14;94.38;98348.19;5074104;28;20229;-86
2023/07/14 03:15:02;;;;;;;5.43;3.83;;;;;;;15.06;95.16;98352.44;5073884;28;20247;-86
2023/07/14 03:17:29;;;;;;;4.07;3.47;;;;;;;14.98;95.84;98344.28;5073911;28;20218;-86
2023/07/14 03:19:55;;;;;;;4.10;3.20;;;;;;;14.95;96.31;98344.50;5072817;28;20211;-87
2023/07/14 03:22:23;;;;;;;3.40;2.87;;;;;;;14.93;96.46;98342.00;5073684;28;20586;-87
2023/07/14 03:24:50;;;;;;;3.73;3.27;;;;;;;14.85;97.05;98332.97;5088972;22;20331;-76
2023/07/14 03:27:17;;;;;;;3.43;2.93;;;;;;;14.86;97.40;98331.97;5073750;28;20682;-76
2023/07/14 03:29:43;;;;;;;3.97;3.07;;;;;;;14.81;97.87;98331.50;5072969;28;20207;-76
2023/07/14 03:32:13;;;;;;;4.97;3.30;;;;;;;14.78;98.07;98329.13;5073731;28;20215;-75
2023/07/14 03:34:40;;;;;;;3.70;3.20;;;;;;;14.76;98.08;98331.03;5073399;28;20239;-75
2023/07/14 03:37:07;;;;;;;4.73;3.50;;;;;;;14.69;98.11;98325.41;5073895;28;20666;-75
2023/07/14 03:39:33;;;;;;;6.23;3.60;;;;;;;14.69;98.68;98329.88;5072889;28;20214;-76
2023/07/14 03:42:01;;;;;;;4.27;3.27;;;;;;;14.70;98.54;98326.22;5073506;28;20223;-75
2023/07/14 03:44:28;;;;;;;3.50;3.20;;;;;;;14.67;98.78;98329.16;5073476;28;20588;-75
2023/07/14 03:46:54;;;;;;;3.93;3.00;;;;;;;14.65;99.19;98329.28;5073252;28;20212;-75
2023/07/14 03:49:21;;;;;;;4.63;3.47;;;;;;;14.67;99.05;98326.50;5072726;28;20210;-75
2023/07/14 03:51:48;;;;;;;3.80;3.03;;;;;;;14.65;99.59;98325.75;5073222;28;20210;-75
2023/07/14 03:54:14;;;;;;;5.03;3.33;;;;;;;14.66;99.43;98324.81;5073107;28;20234;-75
2023/07/14 03:56:42;;;;;;;4.27;3.30;;;;;;;14.65;99.55;98323.09;5073248;28;20218;-76
2023/07/14 03:59:09;;;;;;;5.57;3.17;;;;;;;14.74;99.56;98319.69;5071935;28;20215;-75
2023/07/14 04:01:36;;;;;;;5.30;3.30;;;;;;;14.75;99.89;98324.03;5072938;28;20231;-75
2023/07/14 04:04:02;;;;;;;5.10;3.17;;;;;;;14.83;99.26;98326.91;5073088;28;20211;-75
2023/07/14 04:06:29;;;;;;;4.10;2.97;;;;;;;14.92;99.18;98321.66;5072761;28;20214;-75
2023/07/14 04:08:59;;;;;;;4.20;3.20;;;;;;;15.04;98.39;98325.13;5072836;28;20203;-75
2023/07/14 04:11:26;;;;;;;4.93;3.40;;;;;;;15.15;97.02;98319.75;5072220;28;20728;-75
2023/07/14 04:13:52;;;;;;;3.90;3.50;;;;;;;15.28;95.70;98307.91;5072818;28;20282;-75
2023/07/14 04:16:23;;;;;;;3.53;3.23;;;;;;;15.36;95.64;98309.94;5072859;28;20231;-76
2023/07/14 04:18:50;;;;;;;3.60;3.30;;;;;;;15.44;95.83;98323.44;5072694;28;20207;-75
2023/07/14 04:21:16;;;;;;;4.47;3.50;;;;;;;15.51;95.54;98324.63;5071827;28;20203;-75
2023/07/14 04:23:43;;;;;;;4.77;3.73;;;;;;;15.55;94.87;98320.72;5072878;28;20211;-76
2023/07/14 04:26:11;;;;;;;4.13;3.37;;;;;;;15.60;95.93;98329.16;5072457;28;20243;-77
2023/07/14 04:28:38;;;;;;;5.07;3.60;;;;;;;15.72;95.33;98322.78;5072926;28;20212;-75
2023/07/14 04:31:05;;;;;;;5.20;3.17;;;;;;;15.77;95.17;98323.22;5071778;28;20238;-76
2023/07/14 04:33:33;;;;;;;3.40;3.10;;;;;;;15.81;94.97;98324.63;5072811;28;20207;-76
2023/07/14 04:36:00;;;;;;;4.50;3.13;;;;;;;15.87;94.34;98329.41;5072318;28;20344;-76
2023/07/14 04:38:28;;;;;;;5.50;3.60;;;;;;;15.94;94.02;98327.94;5072411;28;20211;-76
2023/07/14 04:40:55;;;;;;;3.43;2.90;;;;;;;15.98;93.70;98331.00;5071581;28;20256;-76
2023/07/14 04:43:22;;;;;;;4.03;3.00;;;;;;;16.07;94.21;98328.53;5072151;28;20227;-76
2023/07/14 04:45:52;;;;;;;3.50;3.10;;;;;;;16.17;94.96;98325.78;5072944;28;20227;-76
2023/07/14 04:48:22;;;;;;;5.27;3.17;;;;;;;16.26;95.62;98318.75;5073006;28;20211;-76
2023/07/14 04:50:50;;;;;;;4.63;3.20;;;;;;;16.35;95.90;98324.09;5072334;28;20321;-76
2023/07/14 04:53:17;;;;;;;3.30;3.00;;;;;;;16.47;95.96;98323.03;5073051;28;20203;-76
2023/07/14 04:55:45;;;;;;;4.13;2.93;;;;;;;16.60;95.42;98315.63;5071903;28;20254;-76
2023/07/14 04:58:15;;;;;;;4.60;3.60;;;;;;;16.75;94.40;98313.38;5072201;28;20219;-77
2023/07/14 05:00:44;;;;;;;5.40;3.13;;;;;;;16.86;93.75;98314.09;5071502;28;20207;-77
2023/07/14 05:03:11;;;;;;;4.70;3.70;;;;;;;16.99;93.19;98308.47;5071970;28;20211;-76
2023/07/14 05:05:37;;;;;;;4.07;3.03;;;;;;;17.15;92.61;98308.75;5071797;28;20223;-77
2023/07/14 05:08:05;;;;;;;4.70;3.50;;;;;;;17.22;90.50;98305.38;5071878;28;20218;-76
2023/07/14 05:10:33;;;;;;;5.50;3.90;;;;;;;17.35;89.10;98300.56;5070213;28;20677;-77
2023/07/14 05:13:01;;;;;;;3.57;3.03;;;;;;;17.43;88.04;98303.38;5072121;28;20211;-77
2023/07/14 05:15:27;;;;;;;5.03;3.30;;;;;;;17.47;87.74;98296.75;5071636;28;20713;-77
2023/07/14 05:17:55;;;;;;;4.67;3.53;;;;;;;17.59;86.82;98287.59;5071733;28;20203;-76
2023/07/14 05:20:22;;;;;;;4.57;3.43;;;;;;;17.72;85.80;98296.13;5070875;28;20594;-75
2023/07/14 05:22:50;;;;;;;6.27;3.87;;;;;;;17.86;83.48;98287.63;5071786;28;20214;-75
2023/07/14 05:25:19;;;;;;;4.27;3.23;;;;;;;17.83;81.96;98279.91;5071393;28;20706;-75
2023/07/14 05:27:46;;;;;;;4.47;3.30;;;;;;;17.92;81.40;98279.00;5071750;28;20215;-75
2023/07/14 05:30:15;;;;;;;6.63;3.70;;;;;;;18.04;81.86;98291.19;5071067;28;20211;-75
2023/07/14 05:32:43;;;;;;;5.77;3.33;;;;;;;18.16;80.95;98281.16;5071146;28;20234;-75
2023/07/14 05:35:13;;;;;;;3.60;2.97;;;;;;;18.33;80.71;98286.56;5071338;28;20223;-75
2023/07/14 05:37:40;;;;;;;4.97;3.40;;;;;;;18.50;80.13;98282.22;5071386;28;20269;-75
2023/07/14 05:40:10;;;;;;;4.73;3.53;;;;;;;18.52;80.10;98283.75;5070770;28;20215;-75
2023/07/14 05:42:38;;;;;;;4.43;3.20;;;;;;;18.61;79.40;98290.88;5071516;28;20207;-75
2023/07/14 05:45:06;;;;;;;4.10;3.40;;;;;;;18.73;79.57;98292.34;5071262;28;20223;-77
2023/07/14 05:47:36;;;;;;;5.10;3.40;;;;;;;18.80;78.68;98287.22;5071165;28;20208;-76
2023/07/14 05:50:03;;;;;;;4.87;3.23;;;;;;;18.94;78.69;98290.19;5070496;28;20583;-77
2023/07/14 05:52:30;;;;;;;6.37;3.20;;;;;;;19.10;77.50;98279.63;5071233;28;20231;-77
2023/07/14 05:54:57;;;;;;;5.53;3.37;;;;;;;19.36;76.43;98268.94;5071390;28;20603;-76
2023/07/14 05:57:24;;;;;;;4.30;3.70;;;;;;;19.81;74.20;98259.66;5071171;28;20211;-75
2023/07/14 05:59:52;;;;;;;4.30;3.20;;;;;;;20.05;72.32;98261.63;5070786;28;20652;-77
2023/07/14 06:02:18;;;;;;;4.97;3.13;;;;;;;20.28;71.34;98255.53;5071518;28;20674;-77
2023/07/14 06:04:46;;;;;;;4.27;3.10;;;;;;;20.38;70.18;98242.81;5071074;28;20231;-76
2023/07/14 06:07:14;;;;;;;3.47;2.47;;;;;;;20.35;69.20;98247.66;5071584;28;20215;-77
2023/07/14 06:09:42;;;;;;;3.10;2.63;;;;;;;20.31;69.94;98252.50;5070626;28;20293;-76
2023/07/14 06:12:11;;;;;;;3.47;2.60;;;;;;;20.46;69.12;98245.50;5070932;28;20234;-77
2023/07/14 06:14:41;;;;;;;3.77;2.53;;;;;;;20.46;68.18;98239.28;5070986;28;20233;-77
2023/07/14 06:17:13;;;;;;;4.47;2.47;;;;;;;20.37;68.94;98246.47;5070786;28;20211;-77
2023/07/14 06:19:39;;;;;;;3.00;1.97;;;;;;;20.44;67.95;98238.63;5070364;28;20261;-77
2023/07/14 06:22:06;;;;;;;3.80;2.50;;;;;;;20.84;65.51;98222.56;5074287;28;20269;-77
2023/07/14 06:24:35;;;;;;;5.87;2.90;;;;;;;21.12;62.57;98211.31;5074913;28;20239;-77
2023/07/14 06:27:03;;;;;;;3.77;2.50;;;;;;;21.32;62.84;98218.00;5074943;28;20207;-77
2023/07/14 06:29:30;;;;;;;4.33;2.60;;;;;;;21.79;61.52;98204.63;5074028;28;20593;-77
2023/07/14 06:31:56;;;;;;;4.17;2.50;;;;;;;22.27;58.89;98196.31;5074879;28;20227;-77
2023/07/14 06:34:25;;;;;;;4.30;2.70;;;;;;;22.51;57.66;98196.19;5074796;28;20231;-77
2023/07/14 06:36:52;;;;;;;2.90;2.20;;;;;;;22.79;57.62;98200.88;5074851;28;20211;-78
2023/07/14 06:39:19;;;;;;;3.97;2.37;;;;;;;23.32;56.04;98189.97;5073923;28;20485;-79
2023/07/14 06:41:46;;;;;;;4.03;2.67;;;;;;;23.80;53.95;98175.94;5074640;28;20209;-78
2023/07/14 06:44:13;;;;;;;6.70;2.90;;;;;;;24.27;52.12;98165.53;5074477;28;20302;-78
2023/07/14 06:46:39;;;;;;;3.10;2.30;;;;;;;24.72;51.71;98167.94;5074702;28;20207;-78
2023/07/14 06:49:06;;;;;;;2.90;2.20;;;;;;;24.74;50.42;98159.63;5074398;28;20222;-79
2023/07/14 06:51:34;;;;;;;4.00;2.37;;;;;;;24.62;50.09;98166.59;5074272;28;20550;-79
2023/07/14 06:54:00;;;;;;;2.90;2.60;;;;;;;24.87;49.60;98160.56;5074381;28;20249;-79
2023/07/14 06:56:27;;;;;;;3.53;2.40;;;;;;;24.95;48.04;98146.94;5074392;28;20210;-78
2023/07/14 06:58:54;;;;;;;3.27;2.07;;;;;;;25.22;47.49;98156.91;5074105;28;20226;-78
2023/07/14 07:01:21;;;;;;;3.90;2.70;;;;;;;25.48;47.45;98157.09;5073732;28;20214;-78
2023/07/14 07:03:47;;;;;;;3.05;2.13;;;;;;;25.56;46.99;98156.97;5074291;28;20247;-78
2023/07/14 07:06:16;;;;;;;3.53;2.37;;;;;;;25.43;47.39;98151.44;5074189;28;20223;-78
2023/07/14 07:08:45;;;;;;;3.13;2.37;;;;;;;25.30;47.74;98154.06;5074069;28;20215;-78
2023/07/14 07:11:12;;;;;;;3.03;2.58;;;;;;;24.96;47.55;98142.34;5073245;28;20634;-77
2023/07/14 07:13:38;;;;;;;3.30;2.33;;;;;;;24.56;48.83;98154.63;5073938;28;20222;-78
2023/07/14 07:16:05;;;;;;;2.93;2.20;;;;;;;24.20;49.57;98151.13;5074081;28;20224;-77
2023/07/14 07:18:32;;;;;;;3.20;2.33;;;;;;;23.96;50.25;98156.84;5074158;28;20213;-77
2023/07/14 07:20:59;;;;;;;4.43;2.00;;;;;;;23.86;50.13;98159.00;5072927;28;20211;-78
2023/07/14 07:23:26;;;;;;;4.07;2.50;;;;;;;23.62;48.93;98140.41;5073801;28;20611;-77
2023/07/14 07:25:55;;;;;;;3.87;1.90;;;;;;;23.63;49.56;98146.63;5073388;28;20297;-77
2023/07/14 07:28:23;;;;;;;5.03;2.23;;;;;;;23.53;50.48;98146.91;5073808;28;20218;-77
2023/07/14 07:30:49;;;;;;;3.10;2.20;;;;;;;23.49;51.26;98156.41;5071597;28;20220;-87
2023/07/14 07:33:16;;;;;;;2.30;2.10;;;;;;;23.40;50.96;98152.13;5070476;28;20227;-82
2023/07/14 07:35:43;;;;;;;3.37;2.13;;;;;;;23.48;49.74;98143.91;5072215;28;20229;-76
2023/07/14 07:38:11;;;;;;;2.77;2.07;;;;;;;23.54;49.11;98135.09;5072553;28;20298;-76
2023/07/14 07:40:38;;;;;;;2.57;2.23;;;;;;;23.45;49.30;98133.53;5071231;28;20207;-77
2023/07/14 07:43:06;;;;;;;3.97;2.27;;;;;;;23.38;49.63;98138.00;5072200;28;20212;-76
2023/07/14 07:45:32;;;;;;;4.40;2.47;;;;;;;23.43;50.17;98140.13;5072959;28;20231;-76
2023/07/14 07:47:59;;;;;;;3.73;2.40;;;;;;;23.56;51.44;98154.63;5073410;28;20645;-80
2023/07/14 07:50:26;;;;;;;3.87;2.00;;;;;;;23.69;50.61;98138.63;5072942;28;20226;-81
2023/07/14 07:52:53;;;;;;;4.73;2.47;;;;;;;23.83;50.76;98137.75;5073298;28;20227;-81
2023/07/14 07:55:20;;;;;;;3.77;2.47;;;;;;;23.94;51.31;98149.97;5073562;28;20718;-81
2023/07/14 07:57:47;;;;;;;2.73;1.90;;;;;;;24.03;50.34;98138.88;5073507;28;20677;-81
2023/07/14 08:00:16;;;;;;;6.03;2.27;;;;;;;24.12;50.52;98132.34;5072830;28;20203;-81
2023/07/14 08:02:43;;;;;;;2.70;2.10;;;;;;;24.27;49.62;98130.41;5073614;28;20211;-81
2023/07/14 08:05:12;;;;;;;3.40;2.47;;;;;;;24.36;48.01;98106.81;5072962;28;20231;-82
2023/07/14 08:07:38;;;;;;;3.83;2.23;;;;;;;24.39;47.69;98104.56;5072982;28;20268;-83
2023/07/14 08:10:05;;;;;;;2.53;1.73;;;;;;;24.53;47.67;98098.28;5072485;28;20211;-82
2023/07/14 08:12:32;;;;;;;2.00;1.80;;;;;;;24.53;47.82;98109.09;5072781;28;20341;-87
2023/07/14 08:14:59;;;;;;;2.20;1.80;;;;;;;24.69;46.54;98095.31;5072653;28;20227;-87
2023/07/14 08:17:31;;;;;;;2.37;1.90;;;;;;;24.75;46.73;98091.81;5072815;28;20210;-87
2023/07/14 08:19:58;;;;;;;3.65;2.28;;;;;;;24.82;45.97;98087.31;5072074;28;20211;-87
2023/07/14 08:22:25;;;;;;;3.63;2.30;;;;;;;24.89;47.22;98093.63;5072905;28;20203;-85
2023/07/14 08:24:52;;;;;;;5.37;2.60;;;;;;;25.11;46.18;98075.47;5073185;28;20246;-90
2023/07/14 08:27:19;;;;;;;3.17;2.63;;;;;;;25.25;46.56;98086.22;5073224;28;20207;-89
2023/07/14 08:29:45;;;;;;;5.47;2.72;;;;;;;25.41;44.81;98069.63;5072078;28;20223;-90
2023/07/14 08:32:12;;;;;;;3.42;2.53;;;;;;;25.55;44.23;98068.66;5072856;28;20235;-91
2023/07/14 08:34:40;;;;;;;3.27;2.07;;;;;;;25.51;43.74;98071.97;5072630;28;20246;-90
2023/07/14 08:37:07;;;;;;;4.60;2.22;;;;;;;25.53;44.58;98069.91;5073044;28;20261;-91
2023/07/14 08:39:34;;;;;;;2.60;2.17;;;;;;;25.55;42.82;98057.81;5072838;28;20241;-90
2023/07/14 08:42:10;;;;;;;4.23;2.40;;;;;;;25.56;42.56;98064.09;5075991;28;20203;-88
2023/07/14 08:44:54;;;;;;;3.67;2.17;;;;;;;25.70;42.47;98060.38;5073150;28;20231;-86
2023/07/14 08:47:24;;;;;;;4.70;2.47;;;;;;;25.72;41.63;98053.75;5072122;28;20229;-84
2023/07/14 08:49:57;;;;;;;6.55;2.28;;;;;;;25.83;40.94;98045.03;5071716;28;20207;-86
2023/07/14 08:52:27;;;;;;;2.58;2.20;;;;;;;26.00;41.86;98059.91;5071858;28;20237;-82
2023/07/14 08:55:02;;;;;;;4.20;2.20;;;;;;;26.24;41.35;98053.94;5071980;28;20253;-84
2023/07/14 08:57:30;;;;;;;3.22;2.13;;;;;;;26.38;40.59;98043.91;5072216;28;20666;-92
2023/07/14 09:00:01;;;;;;;3.33;2.17;;;;;;;26.60;40.58;98050.84;5073002;28;20211;-93
2023/07/14 09:02:38;;;;;;;3.20;2.33;;;;;;;26.83;39.13;98041.25;5072468;28;20223;-87
2023/07/14 09:05:14;;;;;;;4.28;2.30;;;;;;;26.93;38.72;98033.53;5072185;28;20231;-90
2023/07/14 09:07:41;;;;;;;3.05;2.28;;;;;;;27.10;38.93;98034.75;5072550;28;20207;-81
2023/07/14 09:10:11;;;;;;;2.47;2.00;;;;;;;27.18;38.93;98037.25;5071492;28;20217;-79
2023/07/14 09:12:43;;;;;;;2.45;2.00;;;;;;;27.28;38.39;98043.91;5071623;28;20266;-84
2023/07/14 09:15:17;;;;;;;3.30;2.10;;;;;;;27.32;38.42;98043.50;5072778;28;20238;-86
2023/07/14 09:17:51;;;;;;;4.07;1.75;;;;;;;27.27;37.97;98040.59;5072616;28;20211;-93
2023/07/14 09:20:34;;;;;;;3.95;1.88;;;;;;;27.25;38.28;98038.06;5072046;28;20190;-86
2023/07/14 09:23:15;;;;;;;3.67;2.30;;;;;;;27.24;37.68;98025.56;5072594;28;20207;-88
2023/07/14 09:25:49;;;;;;;4.88;2.30;;;;;;;27.35;38.03;98035.75;5087140;22;20238;-86
2023/07/14 09:28:21;;;;;;;2.78;1.98;;;;;;;27.46;38.21;98035.91;5071835;28;20203;-87
2023/07/14 09:30:50;;;;;;;2.72;1.85;;;;;;;27.53;38.00;98030.47;5070857;28;20211;-85
2023/07/14 09:33:19;;;;;;;3.38;2.15;;;;;;;27.51;37.71;98024.44;5071363;28;20696;-84
2023/07/14 09:35:50;;;;;;;3.72;2.05;;;;;;;27.56;37.59;98021.88;5071798;28;20234;-85
2023/07/14 09:38:22;;;;;;;2.35;1.95;;;;;;;27.70;37.88;98037.09;5071657;28;20229;-84
2023/07/14 09:40:54;;;;;;;5.03;2.33;;;;;;;27.86;37.09;98026.59;5070818;28;20212;-83
2023/07/14 09:43:20;;;;;;;2.88;2.30;;;;;;;28.01;37.63;98034.47;5071464;28;20211;-82
2023/07/14 09:45:47;;;;;;;9.85;2.60;;;;;;;28.06;37.42;98021.06;5071419;28;20665;-83
2023/07/14 09:48:17;;;;;;;4.07;2.22;;;;;;;28.11;37.10;98018.47;5071315;28;20682;-84
2023/07/14 09:51:05;;;;;;;3.65;1.98;;;;;;;28.14;37.25;98018.06;5071012;28;20207;-83
2023/07/14 09:53:34;;;;;;;2.38;2.17;;;;;;;28.16;36.52;98010.50;5071321;28;20698;-82
2023/07/14 09:56:06;;;;;;;4.07;1.95;;;;;;;28.10;36.10;98011.38;5070759;28;20231;-82
2023/07/14 09:58:34;;;;;;;3.08;2.15;;;;;;;28.02;36.60;98008.94;5071923;28;20211;-82
2023/07/14 10:01:07;;;;;;;2.63;2.05;;;;;;;28.09;36.44;98001.56;5070965;28;20207;-81
2023/07/14 10:03:42;;;;;;;4.65;2.30;;;;;;;28.03;35.84;97994.31;5071499;28;20661;-83
2023/07/14 10:06:16;;;;;;;3.30;2.13;;;;;;;27.96;35.21;97982.66;5071350;28;20419;-82
2023/07/14 10:08:48;;;;;;;3.67;2.10;;;;;;;27.84;34.98;97985.25;5071669;28;20211;-82
2023/07/14 10:11:20;;;;;;;2.53;2.05;;;;;;;27.70;36.45;98001.78;5070958;28;20218;-83
2023/07/14 10:13:52;;;;;;;4.43;2.50;;;;;;;27.71;37.76;98008.88;5071244;28;20227;-82
2023/07/14 10:16:21;;;;;;;3.72;2.15;;;;;;;27.73;38.25;98004.91;5071065;28;20254;-82
2023/07/14 10:18:51;;;;;;;3.08;2.28;;;;;;;27.81;38.39;98007.38;5071211;28;20301;-83
2023/07/14 10:21:25;;;;;;;3.08;2.10;;;;;;;27.87;38.75;98005.66;5070607;28;20654;-82
2023/07/14 10:24:01;;;;;;;3.50;2.20;;;;;;;27.94;39.07;98011.94;5071333;28;20703;-84
2023/07/14 10:26:30;;;;;;;2.97;2.22;;;;;;;27.99;38.60;98003.94;5071182;28;20325;-82
2023/07/14 10:28:57;;;;;;;2.97;1.92;;;;;;;27.98;39.08;98007.69;5071489;28;20203;-81
2023/07/14 10:31:30;;;;;;;2.85;2.10;;;;;;;27.96;38.98;98007.94;5069814;28;20218;-80
2023/07/14 10:34:29;;;;;;;2.55;2.00;;;;;;;27.95;37.54;97981.78;5070929;28;20322;-80
2023/07/14 10:37:00;;;;;;;5.50;2.30;;;;;;;27.98;37.33;97988.69;5023483;28;20222;-79
2023/07/14 10:39:36;;;;;;;4.32;2.65;;;;;;;27.97;36.74;97984.31;5070172;28;20559;-79
2023/07/14 10:42:07;;;;;;;1.92;1.63;;;;;;;28.08;36.68;97986.31;5070985;28;20203;-85
2023/07/14 10:44:38;;;;;;;2.83;2.10;;;;;;;28.17;35.53;97969.53;5070909;28;20311;-79
2023/07/14 10:47:14;;;;;;;2.53;2.03;;;;;;;28.16;35.97;97967.03;5071047;28;20219;-81
2023/07/14 10:49:44;;;;;;;2.35;1.80;;;;;;;28.06;35.29;97956.66;5070173;28;20260;-82
2023/07/14 10:52:18;;;;;;;5.70;2.35;;;;;;;28.16;35.60;97967.03;5070913;28;20556;-85
2023/07/14 10:54:52;;;;;;;2.83;2.10;;;;;;;28.22;36.09;97972.44;5071360;28;20227;-82
2023/07/14 10:57:34;;;;;;;2.20;2.00;;;;;;;28.29;34.87;97956.03;5070883;28;20653;-82
2023/07/14 11:00:19;;;;;;;3.67;2.25;;;;;;;28.29;35.60;97956.91;5070456;28;20218;-82
2023/07/14 11:02:51;;;;;;;3.90;2.10;;;;;;;28.35;36.66;97968.75;5071166;28;20601;-83
2023/07/14 11:05:20;;;;;;;2.20;1.83;;;;;;;28.28;34.90;97948.94;5071064;28;20691;-83
2023/07/14 11:07:48;;;;;;;2.85;2.13;;;;;;;28.36;36.18;97962.28;5071901;28;20214;-83
2023/07/14 11:10:30;;;;;;;4.07;2.28;;;;;;;28.42;36.08;97956.00;5073701;28;20209;-83
2023/07/14 11:13:06;;;;;;;2.72;2.00;;;;;;;28.52;34.26;97940.00;5074378;28;20253;-83
2023/07/14 11:15:41;;;;;;;3.20;2.05;;;;;;;28.50;34.21;97931.22;5074373;28;20272;-83
2023/07/14 11:18:20;;;;;;;5.95;2.63;;;;;;;28.32;33.56;97933.88;5074259;28;20206;-83
2023/07/14 11:20:56;;;;;;;2.45;2.20;;;;;;;28.39;34.01;97934.69;5073596;28;20213;-81
2023/07/14 11:23:33;;;;;;;5.22;2.22;;;;;;;28.52;33.83;97924.53;5073969;28;20207;-79
2023/07/14 11:26:06;;;;;;;3.58;2.10;;;;;;;28.56;33.59;97914.03;5074085;28;20245;-80
2023/07/14 11:28:40;;;;;;;4.25;2.42;;;;;;;28.40;33.34;97909.16;5074346;28;20214;-79
2023/07/14 11:31:20;;;;;;;3.60;2.53;;;;;;;28.25;34.13;97924.94;5073310;28;20293;-81
2023/07/14 11:33:56;;;;;;;3.10;2.30;;;;;;;28.23;34.21;97913.44;5073646;28;20261;-82
2023/07/14 11:36:29;;;;;;;2.58;2.03;;;;;;;28.26;34.37;97913.00;5073539;28;20717;-83
2023/07/14 11:39:03;;;;;;;3.80;2.00;;;;;;;28.23;33.35;97902.56;5073745;28;20257;-82
2023/07/14 11:41:32;;;;;;;4.45;2.40;;;;;;;28.28;34.83;97921.78;5071621;28;20739;-81
2023/07/14 11:44:01;;;;;;;2.80;2.40;;;;;;;28.40;35.76;97931.75;5071159;28;20208;-81